Time;durP1;ratioP1;P1;durP2;ratioP2;P2;SDS_P1;SDS_P2;PMS_P1;PMS_P2;Temp;Humidity;BMP_temperature;BMP_pressure;BME280_temperature;BME280_humidity;BME280_pressure;Samples;Min_cycle;Max_cycle;Signal;HPM_P1;HPM_P2
2021/06/18 00:01:56;;;;;;;;;;;;;;;;;;2146514;66;1255;-67
2021/06/18 00:04:23;;;;;;;;;;;;;;;;;;2147892;66;1241;-67
2021/06/18 00:06:48;;;;;;;;;;;;;;;;;;2141273;66;2243;-67
2021/06/18 00:09:13;;;;;;;;;;;;;;;;;;2146216;66;1599;-67
2021/06/18 00:11:39;;;;;;;;;;;;;;;;;;2148737;66;1205;-67
2021/06/18 00:14:05;;;;;;;;;;;;;;;;;;2144967;66;2295;-67
2021/06/18 00:16:30;;;;;;;;;;;;;;;;;;2145748;66;1658;-67
2021/06/18 00:18:56;;;;;;;;;;;;;;;;;;2144984;66;1990;-67
2021/06/18 00:21:21;;;;;;;;;;;;;;;;;;2146643;66;1507;-67
2021/06/18 00:23:46;;;;;;;;;;;;;;;;;;2146587;66;1509;-67
2021/06/18 00:26:11;;;;;;;;;;;;;;;;;;2143960;59;1569;-67
2021/06/18 00:28:36;;;;;;;;;;;;;;;;;;2143613;58;1765;-67
2021/06/18 00:31:02;;;;;;;;;;;;;;;;;;2146620;66;1515;-67
2021/06/18 00:33:28;;;;;;;;;;;;;;;;;;2147965;66;1448;-67
2021/06/18 00:35:53;;;;;;;;;;;;;;;;;;2146442;66;1305;-67
2021/06/18 00:38:19;;;;;;;;;;;;;;;;;;2147110;66;1336;-67
2021/06/18 00:40:45;;;;;;;;;;;;;;;;;;2147195;66;1919;-67
2021/06/18 00:43:10;;;;;;;;;;;;;;;;;;2146370;66;1628;-67
2021/06/18 00:45:35;;;;;;;;;;;;;;;;;;2146781;66;1547;-67
2021/06/18 00:48:01;;;;;;;;;;;;;;;;;;2146574;66;1548;-67
2021/06/18 00:50:27;;;;;;;;;;;;;;;;;;2145828;66;2045;-67
2021/06/18 00:52:52;;;;;;;;;;;;;;;;;;2142552;66;1771;-67
2021/06/18 00:55:17;;;;;;;;;;;;;;;;;;2144139;66;1510;-67
2021/06/18 00:57:43;;;;;;;;;;;;;;;;;;2147567;60;1131;-67
2021/06/18 01:00:10;;;;;;;;;;;;;;;;;;2141937;66;1932;-67
2021/06/18 01:02:36;;;;;;;;;;;;;;;;;;2143383;59;1551;-67
2021/06/18 01:05:01;;;;;;;;;;;;;;;;;;2146111;66;1464;-67
2021/06/18 01:07:29;;;;;;;;;;;;;;;;;;2144872;59;1908;-67
2021/06/18 01:10:00;;;;;;;;;;;;;;;;;;2146143;66;1587;-67
2021/06/18 01:12:26;;;;;;;;;;;;;;;;;;2144936;66;1318;-67
2021/06/18 01:15:00;;;;;;;;;;;;;;;;;;2146330;59;1512;-67
2021/06/18 01:17:34;;;;;;;;;;;;;;;;;;2145090;66;1116;-67
2021/06/18 01:20:18;;;;;;;;;;;;;;;;;;2143343;66;1917;-67
2021/06/18 01:22:47;;;;;;;;;;;;;;;;;;2147540;66;1217;-67
2021/06/18 01:25:18;;;;;;;;;;;;;;;;;;2145499;66;1567;-67
2021/06/18 01:27:50;;;;;;;;;;;;;;;;;;2145063;66;1550;-67
2021/06/18 01:30:16;;;;;;;;;;;;;;;;;;2144885;59;1899;-67
2021/06/18 01:32:43;;;;;;;;;;;;;;;;;;2145465;66;1774;-67
2021/06/18 01:35:12;;;;;;;;;;;;;;;;;;2145377;66;1451;-67
2021/06/18 01:37:37;;;;;;;;;;;;;;;;;;2146246;66;1286;-67
2021/06/18 01:40:09;;;;;;;;;;;;;;;;;;2145067;66;1928;-67
2021/06/18 01:42:37;;;;;;;;;;;;;;;;;;2146429;66;1191;-67
2021/06/18 01:45:03;;;;;;;;;;;;;;;;;;2147794;66;1504;-67
2021/06/18 01:47:29;;;;;;;;;;;;;;;;;;2145212;66;1288;-67
2021/06/18 01:49:55;;;;;;;;;;;;;;;;;;2145207;66;1397;-67
2021/06/18 01:52:21;;;;;;;;;;;;;;;;;;2147675;58;1217;-67
2021/06/18 01:54:47;;;;;;;;;;;;;;;;;;2144661;66;1673;-67
2021/06/18 01:57:13;;;;;;;;;;;;;;;;;;2145413;66;1650;-67
2021/06/18 01:59:39;;;;;;;;;;;;;;;;;;2144554;66;2196;-67
2021/06/18 02:02:05;;;;;;;;;;;;;;;;;;2141455;66;1661;-67
2021/06/18 02:04:32;;;;;;;;;;;;;;;;;;2144815;66;1221;-67
2021/06/18 02:06:57;;;;;;;;;;;;;;;;;;2145224;66;1199;-66
2021/06/18 02:09:24;;;;;;;;;;;;;;;;;;2145639;66;1299;-66
2021/06/18 02:11:49;;;;;;;;;;;;;;;;;;2146148;66;1199;-67
2021/06/18 02:14:17;;;;;;;;;;;;;;;;;;2144491;66;2053;-67
2021/06/18 02:16:44;;;;;;;;;;;;;;;;;;2145168;59;1405;-67
2021/06/18 02:19:12;;;;;;;;;;;;;;;;;;2146275;66;1924;-67
2021/06/18 02:21:38;;;;;;;;;;;;;;;;;;2146868;66;1336;-67
2021/06/18 02:24:03;;;;;;;;;;;;;;;;;;2146068;59;1250;-67
2021/06/18 02:26:29;;;;;;;;;;;;;;;;;;2146689;66;1244;-67
2021/06/18 02:28:54;;;;;;;;;;;;;;;;;;2143655;66;1242;-67
2021/06/18 02:31:23;;;;;;;;;;;;;;;;;;2145130;66;1175;-67
2021/06/18 02:33:52;;;;;;;;;;;;;;;;;;2145980;66;1241;-67
2021/06/18 02:36:17;;;;;;;;;;;;;;;;;;2145355;66;1232;-67
2021/06/18 02:38:43;;;;;;;;;;;;;;;;;;2146360;66;1920;-67
2021/06/18 02:41:08;;;;;;;;;;;;;;;;;;2144705;66;1213;-67
2021/06/18 02:43:33;;;;;;;;;;;;;;;;;;2146122;66;1216;-67
2021/06/18 02:45:58;;;;;;;;;;;;;;;;;;2144844;67;1252;-67
2021/06/18 02:48:26;;;;;;;;;;;;;;;;;;2145404;66;1120;-67
2021/06/18 02:51:10;;;;;;;;;;;;;;;;;;2145227;59;1222;-67
2021/06/18 02:53:45;;;;;;;;;;;;;;;;;;2144229;66;1036;-67
2021/06/18 02:56:26;;;;;;;;;;;;;;;;;;2143392;67;1238;-67
2021/06/18 02:58:56;;;;;;;;;;;;;;;;;;2143585;59;2004;-67
2021/06/18 03:01:24;;;;;;;;;;;;;;;;;;2145837;66;1428;-67
2021/06/18 03:03:52;;;;;;;;;;;;;;;;;;2146434;59;1654;-67
2021/06/18 03:06:19;;;;;;;;;;;;;;;;;;2144580;62;1422;-67
2021/06/18 03:09:04;;;;;;;;;;;;;;;;;;2146915;59;2035;-67
2021/06/18 03:11:37;;;;;;;;;;;;;;;;;;2147502;59;2701;-67
2021/06/18 03:14:05;;;;;;;;;;;;;;;;;;2146388;66;1592;-67
2021/06/18 03:16:31;;;;;;;;;;;;;;;;;;2146136;59;1297;-67
2021/06/18 03:19:04;;;;;;;;;;;;;;;;;;2145461;66;1921;-67
2021/06/18 03:21:31;;;;;;;;;;;;;;;;;;2146025;66;1491;-67
2021/06/18 03:23:57;;;;;;;;;;;;;;;;;;2145955;66;1579;-67
2021/06/18 03:26:23;;;;;;;;;;;;;;;;;;2146263;66;1544;-67
2021/06/18 03:28:49;;;;;;;;;;;;;;;;;;2143494;66;1715;-67
2021/06/18 03:31:16;;;;;;;;;;;;;;;;;;2144625;66;1560;-67
2021/06/18 03:33:42;;;;;;;;;;;;;;;;;;2146778;66;1546;-67
2021/06/18 03:36:07;;;;;;;;;;;;;;;;;;2146301;66;1492;-66
2021/06/18 03:38:33;;;;;;;;;;;;;;;;;;2148102;66;1470;-66
2021/06/18 03:40:59;;;;;;;;;;;;;;;;;;2142701;59;1927;-67
2021/06/18 03:43:24;;;;;;;;;;;;;;;;;;2146499;66;1364;-67
2021/06/18 03:45:53;;;;;;;;;;;;;;;;;;2147260;66;1517;-67
2021/06/18 03:48:19;;;;;;;;;;;;;;;;;;2146166;59;1520;-67
2021/06/18 03:50:44;;;;;;;;;;;;;;;;;;2147254;58;1604;-67
2021/06/18 03:53:10;;;;;;;;;;;;;;;;;;2141771;66;1785;-67
2021/06/18 03:55:36;;;;;;;;;;;;;;;;;;2144799;59;2072;-67
2021/06/18 03:58:03;;;;;;;;;;;;;;;;;;2144867;66;1503;-67
2021/06/18 04:00:29;;;;;;;;;;;;;;;;;;2144854;66;1975;-67
2021/06/18 04:02:55;;;;;;;;;;;;;;;;;;2142334;66;1191;-67
2021/06/18 04:05:21;;;;;;;;;;;;;;;;;;2147188;66;1425;-67
2021/06/18 04:07:47;;;;;;;;;;;;;;;;;;2145326;66;1340;-67
2021/06/18 04:10:16;;;;;;;;;;;;;;;;;;2145530;66;1419;-66
2021/06/18 04:12:42;;;;;;;;;;;;;;;;;;2147473;59;1921;-67
2021/06/18 04:15:07;;;;;;;;;;;;;;;;;;2145187;66;1313;-67
2021/06/18 04:17:33;;;;;;;;;;;;;;;;;;2145183;66;1223;-67
2021/06/18 04:19:59;;;;;;;;;;;;;;;;;;2145922;66;1938;-67
2021/06/18 04:22:30;;;;;;;;;;;;;;;;;;2145243;66;1440;-67
2021/06/18 04:24:55;;;;;;;;;;;;;;;;;;2143233;66;1207;-67
2021/06/18 04:27:21;;;;;;;;;;;;;;;;;;2147564;59;1503;-67
2021/06/18 04:29:46;;;;;;;;;;;;;;;;;;2147784;59;1364;-67
2021/06/18 04:32:11;;;;;;;;;;;;;;;;;;2146620;66;1754;-67
2021/06/18 04:34:36;;;;;;;;;;;;;;;;;;2147469;66;1266;-67
2021/06/18 04:37:01;;;;;;;;;;;;;;;;;;2146463;66;1537;-67
2021/06/18 04:39:27;;;;;;;;;;;;;;;;;;2146681;59;1985;-67
2021/06/18 04:41:52;;;;;;;;;;;;;;;;;;2146611;66;1273;-67
2021/06/18 04:44:17;;;;;;;;;;;;;;;;;;2146803;66;1069;-67
2021/06/18 04:46:43;;;;;;;;;;;;;;;;;;2146970;66;1247;-67
2021/06/18 04:49:08;;;;;;;;;;;;;;;;;;2144907;66;1441;-67
2021/06/18 04:51:33;;;;;;;;;;;;;;;;;;2146560;66;1221;-67
2021/06/18 04:53:58;;;;;;;;;;;;;;;;;;2139670;66;1424;-67
2021/06/18 04:56:24;;;;;;;;;;;;;;;;;;2144760;66;1338;-67
2021/06/18 04:58:49;;;;;;;;;;;;;;;;;;2146929;66;1929;-67
2021/06/18 05:01:14;;;;;;;;;;;;;;;;;;2147351;66;1570;-67
2021/06/18 05:03:39;;;;;;;;;;;;;;;;;;2147494;66;1596;-67
2021/06/18 05:06:05;;;;;;;;;;;;;;;;;;2146420;66;1422;-67
2021/06/18 05:08:30;;;;;;;;;;;;;;;;;;2145293;59;2011;-67
2021/06/18 05:10:55;;;;;;;;;;;;;;;;;;2142639;66;1622;-67
2021/06/18 05:13:21;;;;;;;;;;;;;;;;;;2146885;59;1513;-67
2021/06/18 05:15:46;;;;;;;;;;;;;;;;;;2145464;66;1433;-67
2021/06/18 05:18:11;;;;;;;;;;;;;;;;;;2146163;66;1586;-67
2021/06/18 05:20:36;;;;;;;;;;;;;;;;;;2144235;59;2297;-67
2021/06/18 05:23:02;;;;;;;;;;;;;;;;;;2145338;59;1582;-67
2021/06/18 05:25:27;;;;;;;;;;;;;;;;;;2146452;59;1425;-67
2021/06/18 05:27:52;;;;;;;;;;;;;;;;;;2144827;59;1188;-67
2021/06/18 05:30:18;;;;;;;;;;;;;;;;;;2146577;66;1428;-67
2021/06/18 05:32:46;;;;;;;;;;;;;;;;;;2145636;66;1346;-67
2021/06/18 05:35:12;;;;;;;;;;;;;;;;;;2146392;66;1151;-67
2021/06/18 05:37:37;;;;;;;;;;;;;;;;;;2146426;66;2004;-68
2021/06/18 05:40:03;;;;;;;;;;;;;;;;;;2144791;66;1911;-67
2021/06/18 05:42:28;;;;;;;;;;;;;;;;;;2145592;66;1328;-67
2021/06/18 05:44:53;;;;;;;;;;;;;;;;;;2145679;59;1235;-66
2021/06/18 05:47:18;;;;;;;;;;;;;;;;;;2147833;66;1012;-66
2021/06/18 05:49:44;;;;;;;;;;;;;;;;;;2147557;66;1327;-66
2021/06/18 05:52:09;;;;;;;;;;;;;;;;;;2146884;59;1487;-67
2021/06/18 05:54:34;;;;;;;;;;;;;;;;;;2145715;66;1297;-68
2021/06/18 05:56:59;;;;;;;;;;;;;;;;;;2146206;59;1886;-66
2021/06/18 05:59:25;;;;;;;;;;;;;;;;;;2145001;66;1932;-66
2021/06/18 06:01:50;;;;;;;;;;;;;;;;;;2144298;59;2845;-66
2021/06/18 06:04:15;;;;;;;;;;;;;;;;;;2144124;59;2163;-66
2021/06/18 06:06:40;;;;;;;;;;;;;;;;;;2141539;66;1973;-66
2021/06/18 06:09:05;;;;;;;;;;;;;;;;;;2145068;66;1420;-66
2021/06/18 06:11:32;;;;;;;;;;;;;;;;;;2147104;59;1216;-66
2021/06/18 06:14:02;;;;;;;;;;;;;;;;;;2145709;66;1994;-66
2021/06/18 06:16:28;;;;;;;;;;;;;;;;;;2144468;59;1795;-68
2021/06/18 06:18:53;;;;;;;;;;;;;;;;;;2144667;59;2038;-66
2021/06/18 06:21:18;;;;;;;;;;;;;;;;;;2141043;59;1601;-66
2021/06/18 06:23:44;;;;;;;;;;;;;;;;;;2144751;59;1966;-68
2021/06/18 06:26:09;;;;;;;;;;;;;;;;;;2144648;59;1838;-68
2021/06/18 06:28:36;;;;;;;;;;;;;;;;;;2144613;59;1309;-66
2021/06/18 06:31:01;;;;;;;;;;;;;;;;;;2144403;59;1768;-66
2021/06/18 06:33:26;;;;;;;;;;;;;;;;;;2145435;59;2080;-66
2021/06/18 06:35:51;;;;;;;;;;;;;;;;;;2144915;59;1828;-66
2021/06/18 06:38:19;;;;;;;;;;;;;;;;;;2145490;66;1199;-66
2021/06/18 06:40:45;;;;;;;;;;;;;;;;;;2142447;66;1936;-66
2021/06/18 06:43:10;;;;;;;;;;;;;;;;;;2143503;66;1179;-66
2021/06/18 06:45:35;;;;;;;;;;;;;;;;;;2140985;67;2336;-66
2021/06/18 06:48:00;;;;;;;;;;;;;;;;;;2143322;66;1238;-66
2021/06/18 06:50:25;;;;;;;;;;;;;;;;;;2143908;66;1380;-66
2021/06/18 06:52:50;;;;;;;;;;;;;;;;;;2145687;59;1145;-68
2021/06/18 06:55:16;;;;;;;;;;;;;;;;;;2143012;59;1224;-67
2021/06/18 06:57:41;;;;;;;;;;;;;;;;;;2143202;66;1374;-67
2021/06/18 07:00:07;;;;;;;;;;;;;;;;;;2144344;66;1927;-68
2021/06/18 07:02:32;;;;;;;;;;;;;;;;;;2144426;59;2313;-67
2021/06/18 07:04:57;;;;;;;;;;;;;;;;;;2145146;66;1582;-68
2021/06/18 07:07:22;;;;;;;;;;;;;;;;;;2142812;59;1752;-67
2021/06/18 07:09:47;;;;;;;;;;;;;;;;;;2146592;66;1151;-67
2021/06/18 07:12:13;;;;;;;;;;;;;;;;;;2146199;66;1222;-67
2021/06/18 07:14:40;;;;;;;;;;;;;;;;;;2145592;66;1316;-67
2021/06/18 07:17:05;;;;;;;;;;;;;;;;;;2145111;59;1172;-67
2021/06/18 07:19:31;;;;;;;;;;;;;;;;;;2146227;66;1921;-67
2021/06/18 07:21:56;;;;;;;;;;;;;;;;;;2144296;66;1492;-67
2021/06/18 07:24:21;;;;;;;;;;;;;;;;;;2145710;59;1269;-67
2021/06/18 07:26:47;;;;;;;;;;;;;;;;;;2142140;66;1239;-68
2021/06/18 07:29:12;;;;;;;;;;;;;;;;;;2147245;66;1134;-68
2021/06/18 07:31:37;;;;;;;;;;;;;;;;;;2144862;66;1307;-67
2021/06/18 07:34:03;;;;;;;;;;;;;;;;;;2146560;66;1174;-68
2021/06/18 07:36:28;;;;;;;;;;;;;;;;;;2144792;66;1073;-67
2021/06/18 07:38:54;;;;;;;;;;;;;;;;;;2147119;66;1234;-68
2021/06/18 07:41:19;;;;;;;;;;;;;;;;;;2144678;66;1923;-67
2021/06/18 07:43:44;;;;;;;;;;;;;;;;;;2146376;66;1238;-68
2021/06/18 07:46:09;;;;;;;;;;;;;;;;;;2143940;66;1165;-67
2021/06/18 07:48:35;;;;;;;;;;;;;;;;;;2145879;66;1141;-67
2021/06/18 07:51:01;;;;;;;;;;;;;;;;;;2145384;59;1201;-68
2021/06/18 07:53:26;;;;;;;;;;;;;;;;;;2146484;66;1178;-68
2021/06/18 07:55:53;;;;;;;;;;;;;;;;;;2146360;66;1175;-68
2021/06/18 07:58:18;;;;;;;;;;;;;;;;;;2146891;66;1202;-68
2021/06/18 08:00:43;;;;;;;;;;;;;;;;;;2148274;66;1996;-68
2021/06/18 08:03:09;;;;;;;;;;;;;;;;;;2147243;66;1160;-68
2021/06/18 08:05:34;;;;;;;;;;;;;;;;;;2146379;66;1168;-68
2021/06/18 08:07:59;;;;;;;;;;;;;;;;;;2144825;59;1276;-68
2021/06/18 08:10:26;;;;;;;;;;;;;;;;;;2144948;66;1201;-68
2021/06/18 08:12:51;;;;;;;;;;;;;;;;;;2145898;66;1263;-69
2021/06/18 08:15:16;;;;;;;;;;;;;;;;;;2146481;59;1242;-68
2021/06/18 08:17:42;;;;;;;;;;;;;;;;;;2145540;66;1260;-68
2021/06/18 08:20:09;;;;;;;;;;;;;;;;;;2145652;66;1925;-68
2021/06/18 08:22:34;;;;;;;;;;;;;;;;;;2142050;66;1363;-68
2021/06/18 08:25:00;;;;;;;;;;;;;;;;;;2144692;59;1539;-68
2021/06/18 08:27:25;;;;;;;;;;;;;;;;;;2146524;66;1226;-68
2021/06/18 08:29:52;;;;;;;;;;;;;;;;;;2144407;59;1281;-68
2021/06/18 08:32:18;;;;;;;;;;;;;;;;;;2146991;66;1230;-68
2021/06/18 08:34:43;;;;;;;;;;;;;;;;;;2145842;66;1144;-68
2021/06/18 08:37:08;;;;;;;;;;;;;;;;;;2142034;59;1826;-68
2021/06/18 08:39:33;;;;;;;;;;;;;;;;;;2147191;66;1933;-68
2021/06/18 08:41:59;;;;;;;;;;;;;;;;;;2145709;66;1232;-68
2021/06/18 08:44:24;;;;;;;;;;;;;;;;;;2146648;66;1139;-68
2021/06/18 08:46:49;;;;;;;;;;;;;;;;;;2145266;66;1135;-68
2021/06/18 08:49:15;;;;;;;;;;;;;;;;;;2145537;66;1182;-69
2021/06/18 08:51:40;;;;;;;;;;;;;;;;;;2145062;59;1222;-69
2021/06/18 08:54:05;;;;;;;;;;;;;;;;;;2142839;66;1164;-68
2021/06/18 08:56:30;;;;;;;;;;;;;;;;;;2146626;66;1195;-68
2021/06/18 08:58:56;;;;;;;;;;;;;;;;;;2142638;66;1203;-68
2021/06/18 09:01:21;;;;;;;;;;;;;;;;;;2147541;66;1929;-69
2021/06/18 09:03:47;;;;;;;;;;;;;;;;;;2147075;66;1167;-68
2021/06/18 09:06:22;;;;;;;;;;;;;;;;;;2146712;66;1186;-68
2021/06/18 09:09:07;;;;;;;;;;;;;;;;;;2145138;66;1268;-68
2021/06/18 09:11:52;;;;;;;;;;;;;;;;;;2145578;66;1213;-68
2021/06/18 09:14:37;;;;;;;;;;;;;;;;;;2146511;66;1525;-69
2021/06/18 09:17:11;;;;;;;;;;;;;;;;;;2146970;59;1549;-69
2021/06/18 09:19:41;;;;;;;;;;;;;;;;;;2146494;66;1916;-69
2021/06/18 09:22:11;;;;;;;;;;;;;;;;;;2143761;66;1280;-68
2021/06/18 09:24:37;;;;;;;;;;;;;;;;;;2144900;59;1334;-68
2021/06/18 09:27:03;;;;;;;;;;;;;;;;;;2146250;66;1168;-68
2021/06/18 09:29:30;;;;;;;;;;;;;;;;;;2146649;66;1168;-68
2021/06/18 09:31:59;;;;;;;;;;;;;;;;;;2141536;66;1494;-68
2021/06/18 09:34:59;;;;;;;;;;;;;;;;;;2143845;66;1245;-68
2021/06/18 09:37:35;;;;;;;;;;;;;;;;;;2146045;66;1386;-68
2021/06/18 09:40:17;;;;;;;;;;;;;;;;;;2145807;66;1913;-69
2021/06/18 09:42:45;;;;;;;;;;;;;;;;;;2147086;66;1348;-68
2021/06/18 09:45:11;;;;;;;;;;;;;;;;;;2146990;66;1137;-68
2021/06/18 09:47:37;;;;;;;;;;;;;;;;;;2145669;66;1214;-68
2021/06/18 09:50:20;;;;;;;;;;;;;;;;;;2146862;66;1156;-68
2021/06/18 09:52:46;;;;;;;;;;;;;;;;;;2145656;59;1230;-69
2021/06/18 09:55:19;;;;;;;;;;;;;;;;;;2147655;66;1152;-68
2021/06/18 09:57:45;;;;;;;;;;;;;;;;;;2146258;66;1181;-69
2021/06/18 10:00:11;;;;;;;;;;;;;;;;;;2144601;66;1984;-69
2021/06/18 10:02:43;;;;;;;;;;;;;;;;;;2146308;66;1169;-68
2021/06/18 10:05:16;;;;;;;;;;;;;;;;;;2144766;66;799;-68
2021/06/18 10:07:43;;;;;;;;;;;;;;;;;;2141222;59;1755;-69
2021/06/18 10:10:09;;;;;;;;;;;;;;;;;;2141927;66;1443;-69
2021/06/18 10:12:35;;;;;;;;;;;;;;;;;;2146241;66;1246;-69
2021/06/18 10:15:07;;;;;;;;;;;;;;;;;;2143618;58;2410;-69
2021/06/18 10:17:37;;;;;;;;;;;;;;;;;;2142686;58;2233;-69
2021/06/18 10:20:04;;;;;;;;;;;;;;;;;;2144184;59;2124;-68
2021/06/18 10:22:31;;;;;;;;;;;;;;;;;;2144566;66;1234;-69
2021/06/18 10:25:04;;;;;;;;;;;;;;;;;;2143903;59;1199;-69
2021/06/18 10:27:32;;;;;;;;;;;;;;;;;;2142906;59;1974;-68
2021/06/18 10:29:58;;;;;;;;;;;;;;;;;;2144439;59;1303;-68
2021/06/18 10:32:26;;;;;;;;;;;;;;;;;;2144737;59;2440;-69
2021/06/18 10:34:51;;;;;;;;;;;;;;;;;;2143707;59;2459;-69
2021/06/18 10:37:17;;;;;;;;;;;;;;;;;;2143675;66;1700;-69
2021/06/18 10:39:50;;;;;;;;;;;;;;;;;;2143211;66;1931;-69
2021/06/18 10:42:17;;;;;;;;;;;;;;;;;;2144249;58;2396;-68
2021/06/18 10:44:44;;;;;;;;;;;;;;;;;;2141197;59;2179;-68
2021/06/18 10:47:25;;;;;;;;;;;;;;;;;;2143942;59;2207;-68
2021/06/18 10:49:51;;;;;;;;;;;;;;;;;;2138708;59;2564;-69
2021/06/18 10:52:17;;;;;;;;;;;;;;;;;;2142406;59;1913;-69
2021/06/18 10:54:46;;;;;;;;;;;;;;;;;;2143885;59;1773;-69
2021/06/18 10:57:15;;;;;;;;;;;;;;;;;;2144890;66;1275;-69
2021/06/18 10:59:46;;;;;;;;;;;;;;;;;;2143706;66;1971;-69
2021/06/18 11:02:20;;;;;;;;;;;;;;;;;;2144787;58;2045;-69
2021/06/18 11:04:46;;;;;;;;;;;;;;;;;;2140758;59;2055;-69
2021/06/18 11:07:27;;;;;;;;;;;;;;;;;;2144617;59;1412;-69
2021/06/18 11:09:56;;;;;;;;;;;;;;;;;;2145602;66;1227;-69
2021/06/18 11:12:22;;;;;;;;;;;;;;;;;;2147204;66;1305;-69
2021/06/18 11:14:47;;;;;;;;;;;;;;;;;;2145752;59;1733;-69
2021/06/18 11:17:44;;;;;;;;;;;;;;;;;;2145086;66;1343;-69
2021/06/18 11:20:11;;;;;;;;;;;;;;;;;;2128476;53;3780;-68
2021/06/18 11:22:37;;;;;;;;;;;;;;;;;;2130151;59;1931;-67
2021/06/18 11:25:04;;;;;;;;;;;;;;;;;;2128115;59;1258;-67
2021/06/18 11:27:32;;;;;;;;;;;;;;;;;;2129139;59;2575;-68
2021/06/18 11:30:15;;;;;;;;;;;;;;;;;;2128141;59;1312;-66
2021/06/18 11:32:41;;;;;;;;;;;;;;;;;;2126642;59;1364;-67
2021/06/18 11:35:25;;;;;;;;;;;;;;;;;;2125928;59;1948;-66
2021/06/18 11:37:51;;;;;;;;;;;;;;;;;;2130251;59;1926;-66
2021/06/18 11:40:20;;;;;;;;;;;;;;;;;;2125874;59;1928;-65
2021/06/18 11:42:45;;;;;;;;;;;;;;;;;;2127634;67;1321;-64
2021/06/18 11:45:11;;;;;;;;;;;;;;;;;;2128151;67;1206;-67
2021/06/18 11:47:36;;;;;;;;;;;;;;;;;;2129529;59;1487;-67
2021/06/18 11:50:01;;;;;;;;;;;;;;;;;;2126775;67;1666;-66
2021/06/18 11:52:30;;;;;;;;;;;;;;;;;;2127838;67;1285;-66
2021/06/18 11:55:01;;;;;;;;;;;;;;;;;;2128927;59;1960;-67
2021/06/18 11:57:26;;;;;;;;;;;;;;;;;;2130866;59;1999;-66
2021/06/18 11:59:52;;;;;;;;;;;;;;;;;;2130118;59;1920;-68
2021/06/18 12:02:18;;;;;;;;;;;;;;;;;;2129619;59;1438;-66
2021/06/18 12:04:44;;;;;;;;;;;;;;;;;;2125902;67;1148;-66
2021/06/18 12:07:09;;;;;;;;;;;;;;;;;;2128129;67;1159;-67
2021/06/18 12:09:39;;;;;;;;;;;;;;;;;;2126326;59;1640;-67
2021/06/18 12:12:04;;;;;;;;;;;;;;;;;;2131291;66;1298;-66
2021/06/18 12:14:34;;;;;;;;;;;;;;;;;;2134107;66;1286;-66
2021/06/18 12:16:59;;;;;;;;;;;;;;;;;;2127359;59;1449;-67
2021/06/18 12:19:48;;;;;;;;;;;;;;;;;;2128220;59;1927;-67
2021/06/18 12:22:15;;;;;;;;;;;;;;;;;;2131659;66;1450;-66
2021/06/18 12:24:41;;;;;;;;;;;;;;;;;;2135215;59;1657;-66
2021/06/18 12:27:08;;;;;;;;;;;;;;;;;;2135398;66;1194;-66
2021/06/18 12:29:36;;;;;;;;;;;;;;;;;;2128695;59;1324;-68
2021/06/18 12:32:01;;;;;;;;;;;;;;;;;;2129668;66;1171;-67
2021/06/18 12:34:28;;;;;;;;;;;;;;;;;;2132482;59;1377;-67
2021/06/18 12:36:57;;;;;;;;;;;;;;;;;;2130815;66;1140;-66
2021/06/18 12:39:22;;;;;;;;;;;;;;;;;;2126050;67;1926;-66
2021/06/18 12:41:49;;;;;;;;;;;;;;;;;;2128296;66;1629;-66
2021/06/18 12:44:14;;;;;;;;;;;;;;;;;;2125485;59;1853;-66
2021/06/18 12:46:40;;;;;;;;;;;;;;;;;;2127761;59;1896;-67
2021/06/18 12:49:05;;;;;;;;;;;;;;;;;;2127030;66;1327;-67
2021/06/18 12:51:30;;;;;;;;;;;;;;;;;;2127185;67;1778;-65
2021/06/18 12:54:06;;;;;;;;;;;;;;;;;;2127395;59;1383;-66
2021/06/18 12:56:41;;;;;;;;;;;;;;;;;;2127647;67;2798;-67
2021/06/18 12:59:14;;;;;;;;;;;;;;;;;;2126712;67;1901;-66
2021/06/18 13:01:40;;;;;;;;;;;;;;;;;;2125079;66;1503;-67
2021/06/18 13:04:07;;;;;;;;;;;;;;;;;;2126514;67;1381;-65
2021/06/18 13:06:43;;;;;;;;;;;;;;;;;;2129653;66;1308;-68
2021/06/18 13:09:09;;;;;;;;;;;;;;;;;;2122769;67;1189;-68
2021/06/18 13:11:35;;;;;;;;;;;;;;;;;;2133405;66;1367;-66
2021/06/18 13:14:14;;;;;;;;;;;;;;;;;;2129851;66;1154;-66
2021/06/18 13:16:41;;;;;;;;;;;;;;;;;;2134848;59;1230;-66
2021/06/18 13:19:06;;;;;;;;;;;;;;;;;;2127387;59;1185;-67
2021/06/18 13:21:43;;;;;;;;;;;;;;;;;;2127859;66;1995;-68
2021/06/18 13:24:09;;;;;;;;;;;;;;;;;;2135331;59;1223;-65
2021/06/18 13:26:34;;;;;;;;;;;;;;;;;;2131453;59;1870;-67
2021/06/18 13:29:08;;;;;;;;;;;;;;;;;;2123876;59;1916;-65
2021/06/18 13:31:34;;;;;;;;;;;;;;;;;;2129844;66;1369;-66
2021/06/18 13:33:59;;;;;;;;;;;;;;;;;;2127467;67;1287;-66
2021/06/18 13:36:26;;;;;;;;;;;;;;;;;;2127911;67;1154;-67
2021/06/18 13:38:52;;;;;;;;;;;;;;;;;;2125022;67;1576;-65
2021/06/18 13:41:18;;;;;;;;;;;;;;;;;;2129493;59;1936;-68
2021/06/18 13:43:43;;;;;;;;;;;;;;;;;;2127223;59;1952;-66
2021/06/18 13:46:08;;;;;;;;;;;;;;;;;;2130881;59;1956;-67
2021/06/18 13:48:33;;;;;;;;;;;;;;;;;;2123662;59;2312;-66
2021/06/18 13:50:58;;;;;;;;;;;;;;;;;;2130226;66;1862;-66
2021/06/18 13:53:24;;;;;;;;;;;;;;;;;;2130006;59;1764;-68
2021/06/18 13:55:54;;;;;;;;;;;;;;;;;;2127836;66;1692;-64
2021/06/18 13:58:19;;;;;;;;;;;;;;;;;;2125133;60;3309;-67
2021/06/18 14:00:44;;;;;;;;;;;;;;;;;;2126639;67;3608;-67
2021/06/18 14:03:10;;;;;;;;;;;;;;;;;;2127849;66;1917;-66
2021/06/18 14:05:35;;;;;;;;;;;;;;;;;;2127224;67;1396;-65
2021/06/18 14:08:00;;;;;;;;;;;;;;;;;;2127753;67;1605;-68
2021/06/18 14:10:26;;;;;;;;;;;;;;;;;;2128111;67;1761;-66
2021/06/18 14:12:51;;;;;;;;;;;;;;;;;;2125941;66;1371;-63
2021/06/18 14:15:21;;;;;;;;;;;;;;;;;;2131947;66;1302;-67
2021/06/18 14:17:47;;;;;;;;;;;;;;;;;;2128320;66;1483;-66
2021/06/18 14:20:12;;;;;;;;;;;;;;;;;;2120635;59;1924;-66
2021/06/18 14:22:38;;;;;;;;;;;;;;;;;;2125174;59;2455;-66
2021/06/18 14:25:04;;;;;;;;;;;;;;;;;;2123236;59;2132;-67
2021/06/18 14:27:29;;;;;;;;;;;;;;;;;;2118281;59;2308;-66
2021/06/18 14:29:54;;;;;;;;;;;;;;;;;;2117864;59;2214;-66
2021/06/18 14:32:20;;;;;;;;;;;;;;;;;;2118146;59;2094;-66
2021/06/18 14:34:45;;;;;;;;;;;;;;;;;;2118308;59;1975;-66
2021/06/18 14:37:11;;;;;;;;;;;;;;;;;;2118882;59;2238;-67
2021/06/18 14:39:36;;;;;;;;;;;;;;;;;;2119336;59;2152;-67
2021/06/18 14:42:01;;;;;;;;;;;;;;;;;;2118939;59;2531;-65
2021/06/18 14:44:26;;;;;;;;;;;;;;;;;;2119080;59;2441;-64
2021/06/18 14:46:52;;;;;;;;;;;;;;;;;;2118662;59;2426;-65
2021/06/18 14:49:17;;;;;;;;;;;;;;;;;;2118211;59;1986;-66
2021/06/18 14:51:44;;;;;;;;;;;;;;;;;;2128294;59;1891;-64
2021/06/18 14:54:10;;;;;;;;;;;;;;;;;;2134263;59;1691;-67
2021/06/18 14:56:36;;;;;;;;;;;;;;;;;;2126161;59;1895;-66
2021/06/18 14:59:01;;;;;;;;;;;;;;;;;;2126616;59;3359;-64
2021/06/18 15:01:27;;;;;;;;;;;;;;;;;;2125879;67;2592;-67
2021/06/18 15:03:52;;;;;;;;;;;;;;;;;;2131643;67;2160;-66
2021/06/18 15:06:17;;;;;;;;;;;;;;;;;;2128086;67;1743;-65
2021/06/18 15:08:43;;;;;;;;;;;;;;;;;;2128952;59;1597;-67
2021/06/18 15:11:08;;;;;;;;;;;;;;;;;;2131913;67;1920;-67
2021/06/18 15:13:33;;;;;;;;;;;;;;;;;;2128255;67;2391;-67
2021/06/18 15:15:58;;;;;;;;;;;;;;;;;;2127659;59;1596;-65
2021/06/18 15:18:24;;;;;;;;;;;;;;;;;;2128262;67;1782;-65
2021/06/18 15:20:49;;;;;;;;;;;;;;;;;;2128766;59;1920;-66
2021/06/18 15:23:14;;;;;;;;;;;;;;;;;;2124820;67;2262;-66
2021/06/18 15:25:40;;;;;;;;;;;;;;;;;;2130980;59;1560;-67
2021/06/18 15:28:05;;;;;;;;;;;;;;;;;;2127145;67;1694;-67
2021/06/18 15:30:30;;;;;;;;;;;;;;;;;;2130201;66;1845;-67
2021/06/18 15:32:56;;;;;;;;;;;;;;;;;;2133105;66;1532;-67
2021/06/18 15:35:21;;;;;;;;;;;;;;;;;;2137736;66;1175;-67
2021/06/18 15:37:46;;;;;;;;;;;;;;;;;;2138689;66;1148;-66
2021/06/18 15:40:11;;;;;;;;;;;;;;;;;;2129063;66;1916;-67
2021/06/18 15:42:37;;;;;;;;;;;;;;;;;;2128116;66;1314;-65
2021/06/18 15:45:02;;;;;;;;;;;;;;;;;;2126597;66;1177;-68
2021/06/18 15:47:28;;;;;;;;;;;;;;;;;;2123417;59;2016;-67
2021/06/18 15:49:53;;;;;;;;;;;;;;;;;;2132449;66;1772;-65
2021/06/18 15:52:18;;;;;;;;;;;;;;;;;;2133802;66;1730;-67
2021/06/18 15:54:43;;;;;;;;;;;;;;;;;;2134538;66;2325;-65
2021/06/18 15:57:09;;;;;;;;;;;;;;;;;;2132590;66;1709;-67
2021/06/18 15:59:34;;;;;;;;;;;;;;;;;;2128936;60;2710;-66
2021/06/18 16:01:59;;;;;;;;;;;;;;;;;;2127802;60;2291;-66
2021/06/18 16:04:24;;;;;;;;;;;;;;;;;;2131950;66;1757;-67
2021/06/18 16:06:53;;;;;;;;;;;;;;;;;;2131961;66;1335;-64
2021/06/18 16:09:19;;;;;;;;;;;;;;;;;;2126464;66;1619;-66
2021/06/18 16:11:44;;;;;;;;;;;;;;;;;;2130887;59;1391;-64
2021/06/18 16:14:09;;;;;;;;;;;;;;;;;;2129825;66;1340;-67
2021/06/18 16:16:34;;;;;;;;;;;;;;;;;;2130791;59;1658;-65
2021/06/18 16:19:00;;;;;;;;;;;;;;;;;;2129618;59;1396;-69
2021/06/18 16:21:25;;;;;;;;;;;;;;;;;;2130980;66;1914;-66
2021/06/18 16:23:50;;;;;;;;;;;;;;;;;;2124454;59;1317;-66
2021/06/18 16:26:15;;;;;;;;;;;;;;;;;;2131473;66;1077;-67
2021/06/18 16:28:41;;;;;;;;;;;;;;;;;;2131746;66;1292;-65
2021/06/18 16:31:06;;;;;;;;;;;;;;;;;;2127112;66;1523;-67
2021/06/18 16:33:31;;;;;;;;;;;;;;;;;;2131562;66;1183;-66
2021/06/18 16:35:57;;;;;;;;;;;;;;;;;;2129078;59;1783;-66
2021/06/18 16:38:22;;;;;;;;;;;;;;;;;;2132903;66;1445;-69
2021/06/18 16:40:47;;;;;;;;;;;;;;;;;;2126911;59;2055;-66
2021/06/18 16:43:13;;;;;;;;;;;;;;;;;;2137644;66;1683;-67
2021/06/18 16:45:38;;;;;;;;;;;;;;;;;;2135000;66;1152;-67
2021/06/18 16:48:04;;;;;;;;;;;;;;;;;;2127601;66;2023;-66
2021/06/18 16:50:29;;;;;;;;;;;;;;;;;;2127493;66;1370;-67
2021/06/18 16:52:54;;;;;;;;;;;;;;;;;;2132614;66;1437;-65
2021/06/18 16:55:19;;;;;;;;;;;;;;;;;;2137472;66;1163;-67
2021/06/18 16:57:45;;;;;;;;;;;;;;;;;;2128991;59;1967;-68
2021/06/18 17:00:11;;;;;;;;;;;;;;;;;;2130761;60;2326;-69
2021/06/18 17:02:38;;;;;;;;;;;;;;;;;;2127820;59;2563;-66